Terminal Aerodrome Forecast
Issued by NWS

Home | Current Version | Previous Version | Text Only | Print | Product List | Glossary On
Versions: 1 2 3 4 5 6 7 8 9 10 11 12 13 14 15 16 17 18 19 20 21 22 23 24 25 26 27 28 29 30 31 32 33
000
FTUS46 KPDT 231700
TAFALW
TAF
KALW 231735Z 2318/2418 19010G17KT P6SM VCSH FEW045 BKN080 OVC100
     FM232000 19015G25KT 5SM -SHRA BR SCT020 BKN040 OVC050
     FM240900 20006KT 2SM BR VCSH BKN006 OVC015
     FM241500 16007KT 5SM BR SCT006 BKN020 OVC035=

USA.gov is the U.S. government's official web portal to all federal, state and local government web resources and services.